sensor_id;sensor_type;location;lat;lon;timestamp;temperature;humidity
16263;DHT22;8239;48.594;8.598;2022-12-07T00:01:16;1.70;99.90
16263;DHT22;8239;48.594;8.598;2022-12-07T00:03:45;1.70;99.90
16263;DHT22;8239;48.594;8.598;2022-12-07T00:06:15;1.70;99.90
16263;DHT22;8239;48.594;8.598;2022-12-07T00:08:43;1.60;99.90
16263;DHT22;8239;48.594;8.598;2022-12-07T00:11:12;1.60;99.90
16263;DHT22;8239;48.594;8.598;2022-12-07T00:13:41;1.60;99.90
16263;DHT22;8239;48.594;8.598;2022-12-07T00:16:10;1.60;99.90
16263;DHT22;8239;48.594;8.598;2022-12-07T00:18:37;1.60;99.90
16263;DHT22;8239;48.594;8.598;2022-12-07T00:21:07;1.60;99.90
16263;DHT22;8239;48.594;8.598;2022-12-07T00:23:35;1.60;99.90
16263;DHT22;8239;48.594;8.598;2022-12-07T00:26:04;1.60;99.90
16263;DHT22;8239;48.594;8.598;2022-12-07T00:28:31;1.60;99.90
16263;DHT22;8239;48.594;8.598;2022-12-07T00:31:02;1.60;99.90
16263;DHT22;8239;48.594;8.598;2022-12-07T00:33:30;1.60;99.90
16263;DHT22;8239;48.594;8.598;2022-12-07T00:35:57;1.60;99.90
16263;DHT22;8239;48.594;8.598;2022-12-07T00:38:26;1.60;99.90
16263;DHT22;8239;48.594;8.598;2022-12-07T00:40:55;1.60;99.90
16263;DHT22;8239;48.594;8.598;2022-12-07T00:43:22;1.60;99.90
16263;DHT22;8239;48.594;8.598;2022-12-07T00:45:49;1.60;99.90
16263;DHT22;8239;48.594;8.598;2022-12-07T00:48:18;1.60;99.90
16263;DHT22;8239;48.594;8.598;2022-12-07T00:50:45;1.60;99.90
16263;DHT22;8239;48.594;8.598;2022-12-07T00:53:12;1.60;99.90
16263;DHT22;8239;48.594;8.598;2022-12-07T00:55:39;1.60;99.90
16263;DHT22;8239;48.594;8.598;2022-12-07T00:58:06;1.60;99.90
16263;DHT22;8239;48.594;8.598;2022-12-07T01:00:35;1.60;99.90
16263;DHT22;8239;48.594;8.598;2022-12-07T01:03:03;1.60;99.90
16263;DHT22;8239;48.594;8.598;2022-12-07T01:05:32;1.60;99.90
16263;DHT22;8239;48.594;8.598;2022-12-07T01:07:59;1.60;99.90
16263;DHT22;8239;48.594;8.598;2022-12-07T01:10:26;1.60;99.90
16263;DHT22;8239;48.594;8.598;2022-12-07T01:12:53;1.60;99.90
16263;DHT22;8239;48.594;8.598;2022-12-07T01:15:20;1.60;99.90
16263;DHT22;8239;48.594;8.598;2022-12-07T01:17:47;1.60;99.90
16263;DHT22;8239;48.594;8.598;2022-12-07T01:20:14;1.60;99.90
16263;DHT22;8239;48.594;8.598;2022-12-07T01:22:43;1.60;99.90
16263;DHT22;8239;48.594;8.598;2022-12-07T01:25:11;1.60;99.90
16263;DHT22;8239;48.594;8.598;2022-12-07T01:27:38;1.60;99.90
16263;DHT22;8239;48.594;8.598;2022-12-07T01:30:06;1.60;99.90
16263;DHT22;8239;48.594;8.598;2022-12-07T01:32:34;1.60;99.90
16263;DHT22;8239;48.594;8.598;2022-12-07T01:35:01;1.60;99.90
16263;DHT22;8239;48.594;8.598;2022-12-07T01:37:28;1.70;99.90
16263;DHT22;8239;48.594;8.598;2022-12-07T01:39:56;1.60;99.90
16263;DHT22;8239;48.594;8.598;2022-12-07T01:42:23;1.70;99.90
16263;DHT22;8239;48.594;8.598;2022-12-07T01:48:11;1.70;99.90
16263;DHT22;8239;48.594;8.598;2022-12-07T01:50:39;1.70;99.90
16263;DHT22;8239;48.594;8.598;2022-12-07T01:53:09;1.60;99.90
16263;DHT22;8239;48.594;8.598;2022-12-07T01:55:41;1.60;99.90
16263;DHT22;8239;48.594;8.598;2022-12-07T01:58:09;1.60;99.90
16263;DHT22;8239;48.594;8.598;2022-12-07T02:00:38;1.60;99.90
16263;DHT22;8239;48.594;8.598;2022-12-07T02:03:08;1.50;99.90
16263;DHT22;8239;48.594;8.598;2022-12-07T02:05:37;1.50;99.90
16263;DHT22;8239;48.594;8.598;2022-12-07T02:08:05;1.50;99.90
16263;DHT22;8239;48.594;8.598;2022-12-07T02:10:32;1.50;99.90
16263;DHT22;8239;48.594;8.598;2022-12-07T02:13:03;1.40;99.90
16263;DHT22;8239;48.594;8.598;2022-12-07T02:15:39;1.40;99.90
16263;DHT22;8239;48.594;8.598;2022-12-07T02:18:16;1.40;99.90
16263;DHT22;8239;48.594;8.598;2022-12-07T02:20:49;1.40;99.90
16263;DHT22;8239;48.594;8.598;2022-12-07T02:23:39;1.30;99.90
16263;DHT22;8239;48.594;8.598;2022-12-07T02:26:42;1.30;99.90
16263;DHT22;8239;48.594;8.598;2022-12-07T02:29:19;1.30;99.90
16263;DHT22;8239;48.594;8.598;2022-12-07T02:31:53;1.30;99.90
16263;DHT22;8239;48.594;8.598;2022-12-07T02:34:29;1.30;99.90
16263;DHT22;8239;48.594;8.598;2022-12-07T02:37:01;1.30;99.90
16263;DHT22;8239;48.594;8.598;2022-12-07T02:39:34;1.30;99.90
16263;DHT22;8239;48.594;8.598;2022-12-07T02:42:09;1.30;99.90
16263;DHT22;8239;48.594;8.598;2022-12-07T02:44:41;1.30;99.90
16263;DHT22;8239;48.594;8.598;2022-12-07T02:47:12;1.20;99.90
16263;DHT22;8239;48.594;8.598;2022-12-07T02:49:41;1.20;99.90
16263;DHT22;8239;48.594;8.598;2022-12-07T02:52:08;1.20;99.90
16263;DHT22;8239;48.594;8.598;2022-12-07T02:54:35;1.20;99.90
16263;DHT22;8239;48.594;8.598;2022-12-07T02:57:11;1.20;99.90
16263;DHT22;8239;48.594;8.598;2022-12-07T02:59:49;1.20;99.90
16263;DHT22;8239;48.594;8.598;2022-12-07T03:02:25;1.20;99.90
16263;DHT22;8239;48.594;8.598;2022-12-07T03:05:05;1.20;99.90
16263;DHT22;8239;48.594;8.598;2022-12-07T03:07:46;1.10;99.90
16263;DHT22;8239;48.594;8.598;2022-12-07T03:10:22;1.10;99.90
16263;DHT22;8239;48.594;8.598;2022-12-07T03:12:58;1.10;99.90
16263;DHT22;8239;48.594;8.598;2022-12-07T03:15:33;1.10;99.90
16263;DHT22;8239;48.594;8.598;2022-12-07T03:18:01;1.10;99.90
16263;DHT22;8239;48.594;8.598;2022-12-07T03:20:29;1.10;99.90
16263;DHT22;8239;48.594;8.598;2022-12-07T03:22:57;1.10;99.90
16263;DHT22;8239;48.594;8.598;2022-12-07T03:25:26;1.00;99.90
16263;DHT22;8239;48.594;8.598;2022-12-07T03:27:55;1.00;99.90
16263;DHT22;8239;48.594;8.598;2022-12-07T03:30:27;1.00;99.90
16263;DHT22;8239;48.594;8.598;2022-12-07T03:32:59;1.00;99.90
16263;DHT22;8239;48.594;8.598;2022-12-07T03:35:32;1.00;99.90
16263;DHT22;8239;48.594;8.598;2022-12-07T03:38:04;1.00;99.90
16263;DHT22;8239;48.594;8.598;2022-12-07T03:40:39;1.00;99.90
16263;DHT22;8239;48.594;8.598;2022-12-07T03:43:07;1.00;99.90
16263;DHT22;8239;48.594;8.598;2022-12-07T03:45:38;1.00;99.90
16263;DHT22;8239;48.594;8.598;2022-12-07T03:48:14;1.00;99.90
16263;DHT22;8239;48.594;8.598;2022-12-07T03:50:47;0.90;99.90
16263;DHT22;8239;48.594;8.598;2022-12-07T03:53:18;0.90;99.90
16263;DHT22;8239;48.594;8.598;2022-12-07T03:55:47;0.90;99.90
16263;DHT22;8239;48.594;8.598;2022-12-07T03:58:19;0.90;99.90
16263;DHT22;8239;48.594;8.598;2022-12-07T04:00:47;0.90;99.90
16263;DHT22;8239;48.594;8.598;2022-12-07T04:03:16;0.90;99.90
16263;DHT22;8239;48.594;8.598;2022-12-07T04:05:44;0.90;99.90
16263;DHT22;8239;48.594;8.598;2022-12-07T04:08:11;0.90;99.90
16263;DHT22;8239;48.594;8.598;2022-12-07T04:10:38;0.90;99.90
16263;DHT22;8239;48.594;8.598;2022-12-07T04:13:05;0.90;99.90
16263;DHT22;8239;48.594;8.598;2022-12-07T04:15:32;0.90;99.90
16263;DHT22;8239;48.594;8.598;2022-12-07T04:17:59;0.90;99.90
16263;DHT22;8239;48.594;8.598;2022-12-07T04:20:27;0.90;99.90
16263;DHT22;8239;48.594;8.598;2022-12-07T04:22:54;0.90;99.90
16263;DHT22;8239;48.594;8.598;2022-12-07T04:25:21;0.80;99.90
16263;DHT22;8239;48.594;8.598;2022-12-07T04:27:48;0.80;99.90
16263;DHT22;8239;48.594;8.598;2022-12-07T04:30:15;0.80;99.90
16263;DHT22;8239;48.594;8.598;2022-12-07T04:32:42;0.80;99.90
16263;DHT22;8239;48.594;8.598;2022-12-07T04:35:09;0.80;99.90
16263;DHT22;8239;48.594;8.598;2022-12-07T04:37:38;0.80;99.90
16263;DHT22;8239;48.594;8.598;2022-12-07T04:40:07;0.80;99.90
16263;DHT22;8239;48.594;8.598;2022-12-07T04:42:34;0.70;99.90
16263;DHT22;8239;48.594;8.598;2022-12-07T04:45:01;0.70;99.90
16263;DHT22;8239;48.594;8.598;2022-12-07T04:47:28;0.60;99.90
16263;DHT22;8239;48.594;8.598;2022-12-07T04:49:55;0.60;99.90
16263;DHT22;8239;48.594;8.598;2022-12-07T04:52:22;0.50;99.90
16263;DHT22;8239;48.594;8.598;2022-12-07T04:54:50;0.40;99.90
16263;DHT22;8239;48.594;8.598;2022-12-07T04:57:17;0.30;99.90
16263;DHT22;8239;48.594;8.598;2022-12-07T04:59:44;0.20;99.90
16263;DHT22;8239;48.594;8.598;2022-12-07T05:02:11;0.10;99.90
16263;DHT22;8239;48.594;8.598;2022-12-07T05:04:38;0.00;99.90
16263;DHT22;8239;48.594;8.598;2022-12-07T05:07:05;-0.10;99.90
16263;DHT22;8239;48.594;8.598;2022-12-07T05:09:32;-0.20;99.90
16263;DHT22;8239;48.594;8.598;2022-12-07T05:12:01;-0.40;99.90
16263;DHT22;8239;48.594;8.598;2022-12-07T05:14:28;-0.60;99.90
16263;DHT22;8239;48.594;8.598;2022-12-07T05:16:55;-0.70;99.90
16263;DHT22;8239;48.594;8.598;2022-12-07T05:19:22;-0.70;99.90
16263;DHT22;8239;48.594;8.598;2022-12-07T05:21:49;-0.70;99.90
16263;DHT22;8239;48.594;8.598;2022-12-07T05:24:16;-0.60;99.90
16263;DHT22;8239;48.594;8.598;2022-12-07T05:26:44;-0.60;99.90
16263;DHT22;8239;48.594;8.598;2022-12-07T05:29:14;-0.70;99.90
16263;DHT22;8239;48.594;8.598;2022-12-07T05:31:42;-0.80;99.90
16263;DHT22;8239;48.594;8.598;2022-12-07T05:34:09;-1.00;99.90
16263;DHT22;8239;48.594;8.598;2022-12-07T05:36:36;-1.10;99.90
16263;DHT22;8239;48.594;8.598;2022-12-07T05:39:03;-1.30;99.90
16263;DHT22;8239;48.594;8.598;2022-12-07T05:41:30;-1.40;99.90
16263;DHT22;8239;48.594;8.598;2022-12-07T05:44:16;-1.50;99.90
16263;DHT22;8239;48.594;8.598;2022-12-07T05:46:43;-1.50;99.90
16263;DHT22;8239;48.594;8.598;2022-12-07T05:49:10;-1.60;99.90
16263;DHT22;8239;48.594;8.598;2022-12-07T05:51:37;-1.60;99.90
16263;DHT22;8239;48.594;8.598;2022-12-07T05:54:04;-1.70;99.90
16263;DHT22;8239;48.594;8.598;2022-12-07T05:56:31;-1.80;99.90
16263;DHT22;8239;48.594;8.598;2022-12-07T05:58:58;-1.80;99.90
16263;DHT22;8239;48.594;8.598;2022-12-07T06:01:43;-1.90;99.90
16263;DHT22;8239;48.594;8.598;2022-12-07T06:04:10;-2.00;99.90
16263;DHT22;8239;48.594;8.598;2022-12-07T06:06:37;-2.00;99.90
16263;DHT22;8239;48.594;8.598;2022-12-07T06:09:05;-2.10;99.90
16263;DHT22;8239;48.594;8.598;2022-12-07T06:11:32;-2.10;99.90
16263;DHT22;8239;48.594;8.598;2022-12-07T06:14:25;-2.10;99.90
16263;DHT22;8239;48.594;8.598;2022-12-07T06:16:53;-2.10;99.90
16263;DHT22;8239;48.594;8.598;2022-12-07T06:19:20;-2.10;99.90
16263;DHT22;8239;48.594;8.598;2022-12-07T06:21:47;-2.10;99.90
16263;DHT22;8239;48.594;8.598;2022-12-07T06:24:15;-2.00;99.90
16263;DHT22;8239;48.594;8.598;2022-12-07T06:26:43;-2.00;99.90
16263;DHT22;8239;48.594;8.598;2022-12-07T06:29:11;-1.90;99.90
16263;DHT22;8239;48.594;8.598;2022-12-07T06:31:38;-1.80;99.90
16263;DHT22;8239;48.594;8.598;2022-12-07T06:34:08;-1.70;99.90
16263;DHT22;8239;48.594;8.598;2022-12-07T06:36:36;-1.70;99.90
16263;DHT22;8239;48.594;8.598;2022-12-07T06:39:04;-1.60;99.90
16263;DHT22;8239;48.594;8.598;2022-12-07T06:41:32;-1.50;99.90
16263;DHT22;8239;48.594;8.598;2022-12-07T06:43:59;-1.40;99.90
16263;DHT22;8239;48.594;8.598;2022-12-07T06:46:25;-1.30;99.90
16263;DHT22;8239;48.594;8.598;2022-12-07T06:48:52;-1.20;99.90
16263;DHT22;8239;48.594;8.598;2022-12-07T06:51:21;-1.10;99.90
16263;DHT22;8239;48.594;8.598;2022-12-07T06:53:48;-1.10;99.90
16263;DHT22;8239;48.594;8.598;2022-12-07T06:56:15;-1.00;99.90
16263;DHT22;8239;48.594;8.598;2022-12-07T06:58:42;-0.90;99.90
16263;DHT22;8239;48.594;8.598;2022-12-07T07:01:10;-0.90;99.90
16263;DHT22;8239;48.594;8.598;2022-12-07T07:03:37;-0.80;99.90
16263;DHT22;8239;48.594;8.598;2022-12-07T07:06:05;-0.80;99.90
16263;DHT22;8239;48.594;8.598;2022-12-07T07:08:34;-0.70;99.90
16263;DHT22;8239;48.594;8.598;2022-12-07T07:11:01;-0.70;99.90
16263;DHT22;8239;48.594;8.598;2022-12-07T07:13:29;-0.60;99.90
16263;DHT22;8239;48.594;8.598;2022-12-07T07:15:56;-0.60;99.90
16263;DHT22;8239;48.594;8.598;2022-12-07T07:18:24;-0.50;99.90
16263;DHT22;8239;48.594;8.598;2022-12-07T07:20:51;-0.40;99.90
16263;DHT22;8239;48.594;8.598;2022-12-07T07:23:19;-0.30;99.90
16263;DHT22;8239;48.594;8.598;2022-12-07T07:25:48;-0.30;99.90
16263;DHT22;8239;48.594;8.598;2022-12-07T07:28:16;-0.20;99.90
16263;DHT22;8239;48.594;8.598;2022-12-07T07:30:43;-0.10;99.90
16263;DHT22;8239;48.594;8.598;2022-12-07T07:33:11;-0.10;99.90
16263;DHT22;8239;48.594;8.598;2022-12-07T07:35:38;0.00;99.90
16263;DHT22;8239;48.594;8.598;2022-12-07T07:38:06;0.00;99.90
16263;DHT22;8239;48.594;8.598;2022-12-07T07:40:33;0.00;99.90
16263;DHT22;8239;48.594;8.598;2022-12-07T07:43:02;0.10;99.90
16263;DHT22;8239;48.594;8.598;2022-12-07T07:45:29;0.10;99.90
16263;DHT22;8239;48.594;8.598;2022-12-07T07:47:56;0.20;99.90
16263;DHT22;8239;48.594;8.598;2022-12-07T07:50:23;0.30;99.90
16263;DHT22;8239;48.594;8.598;2022-12-07T07:52:51;0.30;99.90
16263;DHT22;8239;48.594;8.598;2022-12-07T07:55:18;0.40;99.90
16263;DHT22;8239;48.594;8.598;2022-12-07T07:57:45;0.40;99.90
16263;DHT22;8239;48.594;8.598;2022-12-07T08:00:15;0.50;99.90
16263;DHT22;8239;48.594;8.598;2022-12-07T08:02:43;0.50;99.90
16263;DHT22;8239;48.594;8.598;2022-12-07T08:05:12;0.50;99.90
16263;DHT22;8239;48.594;8.598;2022-12-07T08:07:40;0.60;99.90
16263;DHT22;8239;48.594;8.598;2022-12-07T08:10:10;0.60;99.90
16263;DHT22;8239;48.594;8.598;2022-12-07T08:12:37;0.70;99.90
16263;DHT22;8239;48.594;8.598;2022-12-07T08:15:27;0.70;99.90
16263;DHT22;8239;48.594;8.598;2022-12-07T08:17:55;0.80;99.90
16263;DHT22;8239;48.594;8.598;2022-12-07T08:20:22;0.80;99.90
16263;DHT22;8239;48.594;8.598;2022-12-07T08:22:49;0.90;99.90
16263;DHT22;8239;48.594;8.598;2022-12-07T08:25:16;0.90;99.90
16263;DHT22;8239;48.594;8.598;2022-12-07T08:27:43;0.90;99.90
16263;DHT22;8239;48.594;8.598;2022-12-07T08:30:10;1.00;99.90
16263;DHT22;8239;48.594;8.598;2022-12-07T08:32:39;1.00;99.90
16263;DHT22;8239;48.594;8.598;2022-12-07T08:35:07;1.10;99.90
16263;DHT22;8239;48.594;8.598;2022-12-07T08:37:35;1.10;99.90
16263;DHT22;8239;48.594;8.598;2022-12-07T08:40:02;1.20;99.90
16263;DHT22;8239;48.594;8.598;2022-12-07T08:42:29;1.20;99.90
16263;DHT22;8239;48.594;8.598;2022-12-07T08:45:04;1.30;99.90
16263;DHT22;8239;48.594;8.598;2022-12-07T08:47:32;1.40;99.90
16263;DHT22;8239;48.594;8.598;2022-12-07T08:50:01;1.40;99.90
16263;DHT22;8239;48.594;8.598;2022-12-07T08:52:29;1.50;99.90
16263;DHT22;8239;48.594;8.598;2022-12-07T08:54:57;1.60;99.90
16263;DHT22;8239;48.594;8.598;2022-12-07T08:57:24;1.70;99.90
16263;DHT22;8239;48.594;8.598;2022-12-07T08:59:51;1.80;99.90
16263;DHT22;8239;48.594;8.598;2022-12-07T09:02:18;2.00;99.90
16263;DHT22;8239;48.594;8.598;2022-12-07T09:04:45;2.10;99.90
16263;DHT22;8239;48.594;8.598;2022-12-07T09:07:14;2.30;99.90
16263;DHT22;8239;48.594;8.598;2022-12-07T09:09:41;2.50;99.90
16263;DHT22;8239;48.594;8.598;2022-12-07T09:12:08;2.60;99.90
16263;DHT22;8239;48.594;8.598;2022-12-07T09:14:36;2.70;99.90
16263;DHT22;8239;48.594;8.598;2022-12-07T09:17:07;2.70;99.90
16263;DHT22;8239;48.594;8.598;2022-12-07T09:19:34;2.80;99.90
16263;DHT22;8239;48.594;8.598;2022-12-07T09:22:02;2.80;99.90
16263;DHT22;8239;48.594;8.598;2022-12-07T09:24:31;2.80;99.90
16263;DHT22;8239;48.594;8.598;2022-12-07T09:26:58;2.90;99.90
16263;DHT22;8239;48.594;8.598;2022-12-07T09:29:25;2.90;99.90
16263;DHT22;8239;48.594;8.598;2022-12-07T09:31:53;2.90;99.90
16263;DHT22;8239;48.594;8.598;2022-12-07T09:34:20;3.00;99.90
16263;DHT22;8239;48.594;8.598;2022-12-07T09:36:47;3.00;99.90
16263;DHT22;8239;48.594;8.598;2022-12-07T09:39:14;3.00;99.90
16263;DHT22;8239;48.594;8.598;2022-12-07T09:41:43;3.00;99.90
16263;DHT22;8239;48.594;8.598;2022-12-07T09:44:13;3.00;99.90
16263;DHT22;8239;48.594;8.598;2022-12-07T09:46:42;2.90;99.90
16263;DHT22;8239;48.594;8.598;2022-12-07T09:49:12;3.00;99.90
16263;DHT22;8239;48.594;8.598;2022-12-07T09:51:41;3.00;99.90
16263;DHT22;8239;48.594;8.598;2022-12-07T09:54:12;3.00;99.90
16263;DHT22;8239;48.594;8.598;2022-12-07T09:56:39;3.00;99.90
16263;DHT22;8239;48.594;8.598;2022-12-07T09:59:13;3.00;99.90
16263;DHT22;8239;48.594;8.598;2022-12-07T10:01:43;3.10;99.90
16263;DHT22;8239;48.594;8.598;2022-12-07T10:04:14;3.20;99.90
16263;DHT22;8239;48.594;8.598;2022-12-07T10:06:42;3.20;99.90
16263;DHT22;8239;48.594;8.598;2022-12-07T10:09:10;3.30;99.90
16263;DHT22;8239;48.594;8.598;2022-12-07T10:12:02;3.40;99.90
16263;DHT22;8239;48.594;8.598;2022-12-07T10:14:34;3.60;99.90
16263;DHT22;8239;48.594;8.598;2022-12-07T10:17:01;3.80;99.90
16263;DHT22;8239;48.594;8.598;2022-12-07T10:19:29;4.00;99.90
16263;DHT22;8239;48.594;8.598;2022-12-07T10:22:03;4.30;99.90
16263;DHT22;8239;48.594;8.598;2022-12-07T10:24:31;4.50;99.90
16263;DHT22;8239;48.594;8.598;2022-12-07T10:26:58;4.70;99.90
16263;DHT22;8239;48.594;8.598;2022-12-07T10:29:30;4.90;99.90
16263;DHT22;8239;48.594;8.598;2022-12-07T10:32:00;5.00;99.90
16263;DHT22;8239;48.594;8.598;2022-12-07T10:34:29;5.10;99.90
16263;DHT22;8239;48.594;8.598;2022-12-07T10:37:17;5.20;99.90
16263;DHT22;8239;48.594;8.598;2022-12-07T10:39:47;5.20;99.90
16263;DHT22;8239;48.594;8.598;2022-12-07T10:42:18;5.10;99.90
16263;DHT22;8239;48.594;8.598;2022-12-07T10:44:47;5.10;99.90
16263;DHT22;8239;48.594;8.598;2022-12-07T10:47:32;5.00;99.90
16263;DHT22;8239;48.594;8.598;2022-12-07T10:50:23;5.00;99.90
16263;DHT22;8239;48.594;8.598;2022-12-07T10:53:21;5.00;99.90
16263;DHT22;8239;48.594;8.598;2022-12-07T10:56:11;5.20;99.90
16263;DHT22;8239;48.594;8.598;2022-12-07T10:58:53;5.30;99.90
16263;DHT22;8239;48.594;8.598;2022-12-07T11:01:25;5.50;99.90
16263;DHT22;8239;48.594;8.598;2022-12-07T11:07:03;5.80;99.90
16263;DHT22;8239;48.594;8.598;2022-12-07T11:09:50;5.90;99.90
16263;DHT22;8239;48.594;8.598;2022-12-07T11:12:26;5.90;99.90
16263;DHT22;8239;48.594;8.598;2022-12-07T11:15:03;5.90;99.90
16263;DHT22;8239;48.594;8.598;2022-12-07T11:17:36;5.70;99.90
16263;DHT22;8239;48.594;8.598;2022-12-07T11:20:23;5.50;99.90
16263;DHT22;8239;48.594;8.598;2022-12-07T11:22:58;5.30;99.90
16263;DHT22;8239;48.594;8.598;2022-12-07T11:25:32;5.30;99.90
16263;DHT22;8239;48.594;8.598;2022-12-07T11:28:15;5.30;99.90
16263;DHT22;8239;48.594;8.598;2022-12-07T11:30:52;5.30;99.90
16263;DHT22;8239;48.594;8.598;2022-12-07T11:33:29;5.30;99.90
16263;DHT22;8239;48.594;8.598;2022-12-07T11:36:13;5.40;99.90
16263;DHT22;8239;48.594;8.598;2022-12-07T11:38:46;5.50;99.90
16263;DHT22;8239;48.594;8.598;2022-12-07T11:41:22;5.70;99.90
16263;DHT22;8239;48.594;8.598;2022-12-07T11:43:54;5.80;99.90
16263;DHT22;8239;48.594;8.598;2022-12-07T11:46:25;5.80;99.90
16263;DHT22;8239;48.594;8.598;2022-12-07T11:48:58;5.90;99.90
16263;DHT22;8239;48.594;8.598;2022-12-07T11:51:34;5.90;99.90
16263;DHT22;8239;48.594;8.598;2022-12-07T11:54:10;5.90;99.90
16263;DHT22;8239;48.594;8.598;2022-12-07T11:56:38;6.00;99.90
16263;DHT22;8239;48.594;8.598;2022-12-07T11:59:12;6.00;99.90
16263;DHT22;8239;48.594;8.598;2022-12-07T12:01:48;6.00;99.90
16263;DHT22;8239;48.594;8.598;2022-12-07T12:04:32;6.00;99.90
16263;DHT22;8239;48.594;8.598;2022-12-07T12:07:03;5.90;99.90
16263;DHT22;8239;48.594;8.598;2022-12-07T12:09:35;5.70;99.90
16263;DHT22;8239;48.594;8.598;2022-12-07T12:12:31;5.50;99.90
16263;DHT22;8239;48.594;8.598;2022-12-07T12:15:16;5.30;99.90
16263;DHT22;8239;48.594;8.598;2022-12-07T12:20:43;5.10;99.90
16263;DHT22;8239;48.594;8.598;2022-12-07T12:23:16;5.00;99.90
16263;DHT22;8239;48.594;8.598;2022-12-07T12:25:50;5.00;99.90
16263;DHT22;8239;48.594;8.598;2022-12-07T12:28:27;5.00;99.90
16263;DHT22;8239;48.594;8.598;2022-12-07T12:31:09;4.90;99.90
16263;DHT22;8239;48.594;8.598;2022-12-07T12:33:37;4.90;99.90
16263;DHT22;8239;48.594;8.598;2022-12-07T12:36:25;4.90;99.90
16263;DHT22;8239;48.594;8.598;2022-12-07T12:39:09;5.00;99.90
16263;DHT22;8239;48.594;8.598;2022-12-07T12:41:53;5.10;99.90
16263;DHT22;8239;48.594;8.598;2022-12-07T12:45:03;5.20;99.90
16263;DHT22;8239;48.594;8.598;2022-12-07T12:47:42;5.20;99.90
16263;DHT22;8239;48.594;8.598;2022-12-07T12:50:24;5.40;99.90
16263;DHT22;8239;48.594;8.598;2022-12-07T12:52:56;5.70;99.90
16263;DHT22;8239;48.594;8.598;2022-12-07T12:58:44;6.40;99.90
16263;DHT22;8239;48.594;8.598;2022-12-07T13:01:42;6.70;99.90
16263;DHT22;8239;48.594;8.598;2022-12-07T13:04:36;6.90;99.90
16263;DHT22;8239;48.594;8.598;2022-12-07T13:07:13;7.10;99.90
16263;DHT22;8239;48.594;8.598;2022-12-07T13:09:43;7.10;99.90
16263;DHT22;8239;48.594;8.598;2022-12-07T13:12:15;7.10;99.90
16263;DHT22;8239;48.594;8.598;2022-12-07T13:14:56;7.30;99.90
16263;DHT22;8239;48.594;8.598;2022-12-07T13:17:54;7.30;99.90
16263;DHT22;8239;48.594;8.598;2022-12-07T13:20:44;7.30;99.90
16263;DHT22;8239;48.594;8.598;2022-12-07T13:23:14;7.10;99.90
16263;DHT22;8239;48.594;8.598;2022-12-07T13:25:49;7.00;99.90
16263;DHT22;8239;48.594;8.598;2022-12-07T13:28:19;6.80;99.90
16263;DHT22;8239;48.594;8.598;2022-12-07T13:30:57;6.50;99.50
16263;DHT22;8239;48.594;8.598;2022-12-07T13:33:28;6.30;99.90
16263;DHT22;8239;48.594;8.598;2022-12-07T13:35:56;6.10;99.90
16263;DHT22;8239;48.594;8.598;2022-12-07T13:38:28;6.00;99.90
16263;DHT22;8239;48.594;8.598;2022-12-07T13:41:12;5.90;99.90
16263;DHT22;8239;48.594;8.598;2022-12-07T13:43:50;5.80;99.90
16263;DHT22;8239;48.594;8.598;2022-12-07T13:46:20;5.70;99.90
16263;DHT22;8239;48.594;8.598;2022-12-07T13:48:51;5.60;99.90
16263;DHT22;8239;48.594;8.598;2022-12-07T13:51:20;5.50;99.90
16263;DHT22;8239;48.594;8.598;2022-12-07T13:53:49;5.50;99.90
16263;DHT22;8239;48.594;8.598;2022-12-07T13:56:17;5.40;99.90
16263;DHT22;8239;48.594;8.598;2022-12-07T13:58:44;5.40;99.90
16263;DHT22;8239;48.594;8.598;2022-12-07T14:01:11;5.60;99.90
16263;DHT22;8239;48.594;8.598;2022-12-07T14:03:40;5.90;99.90
16263;DHT22;8239;48.594;8.598;2022-12-07T14:06:17;6.30;99.90
16263;DHT22;8239;48.594;8.598;2022-12-07T14:08:45;7.30;99.90
16263;DHT22;8239;48.594;8.598;2022-12-07T14:11:16;8.80;99.90
16263;DHT22;8239;48.594;8.598;2022-12-07T14:13:56;10.80;98.60
16263;DHT22;8239;48.594;8.598;2022-12-07T14:16:29;12.40;91.00
16263;DHT22;8239;48.594;8.598;2022-12-07T14:18:59;13.70;85.50
16263;DHT22;8239;48.594;8.598;2022-12-07T14:21:28;14.90;76.50
16263;DHT22;8239;48.594;8.598;2022-12-07T14:24:15;15.80;64.80
16263;DHT22;8239;48.594;8.598;2022-12-07T14:26:43;16.70;61.50
16263;DHT22;8239;48.594;8.598;2022-12-07T14:29:22;17.50;59.20
16263;DHT22;8239;48.594;8.598;2022-12-07T14:31:55;18.10;57.30
16263;DHT22;8239;48.594;8.598;2022-12-07T14:34:24;18.50;54.30
16263;DHT22;8239;48.594;8.598;2022-12-07T14:36:51;18.80;51.70
16263;DHT22;8239;48.594;8.598;2022-12-07T14:39:18;19.00;51.60
16263;DHT22;8239;48.594;8.598;2022-12-07T14:41:48;19.20;50.40
16263;DHT22;8239;48.594;8.598;2022-12-07T14:44:19;19.20;49.30
16263;DHT22;8239;48.594;8.598;2022-12-07T14:46:47;19.10;47.60
16263;DHT22;8239;48.594;8.598;2022-12-07T14:49:14;18.50;47.10
16263;DHT22;8239;48.594;8.598;2022-12-07T14:51:45;17.90;46.70
16263;DHT22;8239;48.594;8.598;2022-12-07T14:54:16;17.30;46.10
16263;DHT22;8239;48.594;8.598;2022-12-07T14:56:44;16.70;47.10
16263;DHT22;8239;48.594;8.598;2022-12-07T14:59:14;16.10;48.00
16263;DHT22;8239;48.594;8.598;2022-12-07T15:01:42;15.50;48.50
16263;DHT22;8239;48.594;8.598;2022-12-07T15:04:09;14.90;49.00
16263;DHT22;8239;48.594;8.598;2022-12-07T15:06:36;14.10;50.30
16263;DHT22;8239;48.594;8.598;2022-12-07T15:09:04;13.20;50.60
16263;DHT22;8239;48.594;8.598;2022-12-07T15:11:31;12.20;51.30
16263;DHT22;8239;48.594;8.598;2022-12-07T15:13:58;11.10;52.50
16263;DHT22;8239;48.594;8.598;2022-12-07T15:16:37;9.70;54.60
16263;DHT22;8239;48.594;8.598;2022-12-07T15:19:08;8.20;57.20
16263;DHT22;8239;48.594;8.598;2022-12-07T15:21:36;6.90;59.50
16263;DHT22;8239;48.594;8.598;2022-12-07T15:24:05;5.80;63.10
16263;DHT22;8239;48.594;8.598;2022-12-07T15:26:32;4.90;66.50
16263;DHT22;8239;48.594;8.598;2022-12-07T15:28:59;4.20;69.40
16263;DHT22;8239;48.594;8.598;2022-12-07T15:31:26;3.60;72.10
16263;DHT22;8239;48.594;8.598;2022-12-07T15:33:53;3.10;73.70
16263;DHT22;8239;48.594;8.598;2022-12-07T15:36:23;2.70;75.50
16263;DHT22;8239;48.594;8.598;2022-12-07T15:38:50;2.30;77.50
16263;DHT22;8239;48.594;8.598;2022-12-07T15:41:18;2.00;79.70
16263;DHT22;8239;48.594;8.598;2022-12-07T15:43:45;1.70;82.20
16263;DHT22;8239;48.594;8.598;2022-12-07T15:46:30;1.40;84.80
16263;DHT22;8239;48.594;8.598;2022-12-07T15:48:57;1.20;88.10
16263;DHT22;8239;48.594;8.598;2022-12-07T15:51:25;0.90;90.60
16263;DHT22;8239;48.594;8.598;2022-12-07T15:53:52;0.70;92.00
16263;DHT22;8239;48.594;8.598;2022-12-07T15:56:21;0.60;93.70
16263;DHT22;8239;48.594;8.598;2022-12-07T15:58:48;0.40;95.30
16263;DHT22;8239;48.594;8.598;2022-12-07T16:01:17;0.30;97.00
16263;DHT22;8239;48.594;8.598;2022-12-07T16:03:45;0.30;98.50
16263;DHT22;8239;48.594;8.598;2022-12-07T16:06:15;0.20;99.40
16263;DHT22;8239;48.594;8.598;2022-12-07T16:08:45;0.10;99.90
16263;DHT22;8239;48.594;8.598;2022-12-07T16:11:12;0.00;99.90
16263;DHT22;8239;48.594;8.598;2022-12-07T16:13:40;-0.10;99.90
16263;DHT22;8239;48.594;8.598;2022-12-07T16:16:10;-0.20;99.90
16263;DHT22;8239;48.594;8.598;2022-12-07T16:18:38;-0.20;99.90
16263;DHT22;8239;48.594;8.598;2022-12-07T16:21:06;-0.30;99.90
16263;DHT22;8239;48.594;8.598;2022-12-07T16:23:33;-0.40;99.90
16263;DHT22;8239;48.594;8.598;2022-12-07T16:26:11;-0.40;99.90
16263;DHT22;8239;48.594;8.598;2022-12-07T16:28:40;-0.40;99.90
16263;DHT22;8239;48.594;8.598;2022-12-07T16:31:11;-0.40;99.90
16263;DHT22;8239;48.594;8.598;2022-12-07T16:33:39;-0.40;99.90